createdAt,value
2022-08-07T00:00:43.385Z,92.18
2022-08-07T00:02:37.222Z,92.18
2022-08-07T00:02:44.754Z,92.28
2022-08-07T00:03:47.199Z,92.08
2022-08-07T00:04:43.425Z,92.38
2022-08-07T00:05:43.343Z,92.38
2022-08-07T00:06:51.667Z,92.18
2022-08-07T00:07:44.326Z,92.38
2022-08-07T00:08:44.446Z,92.18
2022-08-07T00:09:50.160Z,92.08
2022-08-07T00:10:48.350Z,92.28
2022-08-07T00:11:54.027Z,92.59
2022-08-07T00:12:59.941Z,92.43
2022-08-07T00:13:44.867Z,92.63
2022-08-07T00:14:44.205Z,92.49
2022-08-07T00:15:46.739Z,92.38
2022-08-07T00:16:44.252Z,92.08
2022-08-07T00:17:43.248Z,92.74
2022-08-07T00:18:43.241Z,92.74
2022-08-07T00:20:01.058Z,92.53
2022-08-07T00:20:44.228Z,92.63
2022-08-07T00:21:55.989Z,92.53
2022-08-07T00:22:51.789Z,92.22
2022-08-07T00:23:44.202Z,92.02
2022-08-07T00:24:43.221Z,92.22
2022-08-07T00:25:43.199Z,92.02
2022-08-07T00:26:59.469Z,92.53
2022-08-07T00:27:52.532Z,92.43
2022-08-07T00:28:45.863Z,92.16
2022-08-07T00:29:44.179Z,92.06
2022-08-07T00:30:43.147Z,92.78
2022-08-07T00:31:43.157Z,92.16
2022-08-07T00:32:43.128Z,92.63
2022-08-07T00:33:43.123Z,92.27
2022-08-07T00:34:43.138Z,92.36
2022-08-07T00:35:49.098Z,92.36
2022-08-07T00:36:45.094Z,92.57
2022-08-07T00:37:48.324Z,92.36
2022-08-07T00:38:44.076Z,92.36
2022-08-07T00:39:44.849Z,92.43
2022-08-07T00:40:43.065Z,92.78
2022-08-07T00:41:53.199Z,92.47
2022-08-07T00:42:44.046Z,92.57
2022-08-07T00:44:01.817Z,92.78
2022-08-07T00:44:44.059Z,92.47
2022-08-07T00:45:43.022Z,92.47
2022-08-07T00:46:43.013Z,92.57
2022-08-07T00:48:08.884Z,92.27
2022-08-07T00:48:43.998Z,92.78
2022-08-07T00:50:20.696Z,92.88
2022-08-07T00:50:50.483Z,92.68
2022-08-07T00:51:58.695Z,92.88
2022-08-07T00:52:47.531Z,92.57
2022-08-07T00:53:50.888Z,92.78
2022-08-07T00:54:44.971Z,92.57
2022-08-07T00:56:00.390Z,92.57
2022-08-07T00:56:43.995Z,92.16
2022-08-07T00:57:55.083Z,92.78
2022-08-07T00:58:46.616Z,92.78
2022-08-07T00:59:42.936Z,92.98
2022-08-07T01:00:53.874Z,93.23
2022-08-07T01:01:44.482Z,92.78
2022-08-07T01:02:42.886Z,92.93
2022-08-07T01:03:55.675Z,93.13
2022-08-07T01:04:44.038Z,92.78
2022-08-07T01:05:42.859Z,92.93
2022-08-07T01:06:43.852Z,92.82
2022-08-07T01:07:42.843Z,92.93
2022-08-07T01:08:51.283Z,93.13
2022-08-07T01:10:04.635Z,93.44
2022-08-07T01:10:54.239Z,93.44
2022-08-07T01:12:09.489Z,93.44
2022-08-07T01:12:53.787Z,93.54
2022-08-07T01:13:55.567Z,92.93
2022-08-07T01:14:45.062Z,93.13
2022-08-07T01:16:05.727Z,93.44
2022-08-07T01:16:47.349Z,93.02
2022-08-07T01:17:42.767Z,92.93
2022-08-07T01:18:42.754Z,93.59
2022-08-07T01:19:52.403Z,93.74
2022-08-07T01:20:43.734Z,93.74
2022-08-07T01:21:43.730Z,94.40
2022-08-07T01:22:54.065Z,94.46
2022-08-07T01:23:46.549Z,94.20
2022-08-07T01:24:43.737Z,93.48
2022-08-07T01:25:55.296Z,93.54
2022-08-07T01:26:43.691Z,93.33
2022-08-07T01:27:50.968Z,93.59
2022-08-07T01:28:46.158Z,93.38
2022-08-07T01:29:42.671Z,93.68
2022-08-07T01:30:42.691Z,93.68
2022-08-07T01:31:48.106Z,93.68
2022-08-07T01:32:43.650Z,93.68
2022-08-07T01:33:53.992Z,93.68
2022-08-07T01:34:43.632Z,94.30
2022-08-07T01:35:53.115Z,94.40
2022-08-07T01:36:44.102Z,94.34
2022-08-07T01:37:42.618Z,94.34
2022-08-07T01:38:42.604Z,94.55
2022-08-07T01:39:46.734Z,94.81
2022-08-07T01:40:42.616Z,94.55
2022-08-07T01:42:01.642Z,94.40
2022-08-07T01:42:57.554Z,94.14
2022-08-07T01:43:43.577Z,94.65
2022-08-07T01:44:42.561Z,94.34
2022-08-07T01:45:43.571Z,94.24
2022-08-07T01:46:42.548Z,94.96
2022-08-07T01:48:21.340Z,94.65
2022-08-07T01:48:46.624Z,94.85
2022-08-07T01:49:42.520Z,94.34
2022-08-07T01:50:43.182Z,94.65
2022-08-07T01:52:03.628Z,94.76
2022-08-07T01:52:49.723Z,94.34
2022-08-07T01:54:00.768Z,94.55
2022-08-07T01:54:43.479Z,94.80
2022-08-07T01:55:42.498Z,94.96
2022-08-07T01:56:42.472Z,94.85
2022-08-07T01:58:06.471Z,94.65
2022-08-07T01:58:45.322Z,94.59
2022-08-07T01:59:43.789Z,95.42
2022-08-07T02:00:49.102Z,95.52
2022-08-07T02:01:59.970Z,95.17
2022-08-07T02:03:18.118Z,95.17
2022-08-07T02:03:50.338Z,95.37
2022-08-07T02:04:56.209Z,95.47
2022-08-07T02:05:55.281Z,95.52
2022-08-07T02:06:43.386Z,94.96
2022-08-07T02:07:49.976Z,95.72
2022-08-07T02:08:43.375Z,95.42
2022-08-07T02:09:54.698Z,95.72
2022-08-07T02:10:43.389Z,95.52
2022-08-07T02:12:03.442Z,95.42
2022-08-07T02:12:43.338Z,95.31
2022-08-07T02:13:57.567Z,95.31
2022-08-07T02:14:43.325Z,95.57
2022-08-07T02:15:42.350Z,95.10
2022-08-07T02:16:42.310Z,95.31
2022-08-07T02:17:42.303Z,95.01
2022-08-07T02:18:46.889Z,95.31
2022-08-07T02:20:05.817Z,95.31
2022-08-07T02:20:43.304Z,95.31
2022-08-07T02:21:55.075Z,95.52
2022-08-07T02:22:43.809Z,95.52
2022-08-07T02:23:42.255Z,95.42
2022-08-07T02:24:44.646Z,95.52
2022-08-07T02:26:26.759Z,95.56
2022-08-07T02:26:43.252Z,95.31
2022-08-07T02:27:42.223Z,95.21
2022-08-07T02:28:42.215Z,95.52
2022-08-07T02:29:43.455Z,95.67
2022-08-07T02:30:43.194Z,95.83
2022-08-07T02:31:42.214Z,95.83
2022-08-07T02:33:00.476Z,96.28
2022-08-07T02:34:01.805Z,96.39
2022-08-07T02:34:48.903Z,96.39
2022-08-07T02:36:28.645Z,95.77
2022-08-07T02:36:43.169Z,95.77
2022-08-07T02:37:44.105Z,95.67
2022-08-07T02:38:50.970Z,96.39
2022-08-07T02:40:02.331Z,96.28
2022-08-07T02:40:43.150Z,95.97
2022-08-07T02:41:50.684Z,95.67
2022-08-07T02:42:43.097Z,96.18
2022-08-07T02:43:42.093Z,95.87
2022-08-07T02:44:47.874Z,96.28
2022-08-07T02:45:58.461Z,96.39
2022-08-07T02:46:46.616Z,96.48
2022-08-07T02:47:48.130Z,96.69
2022-08-07T02:48:54.628Z,96.48
2022-08-07T02:49:56.339Z,96.73
2022-08-07T02:50:43.035Z,96.94
2022-08-07T02:51:52.097Z,96.94
2022-08-07T02:52:44.182Z,96.73
2022-08-07T02:53:42.014Z,96.73
2022-08-07T02:54:42.008Z,96.69
2022-08-07T02:56:03.198Z,96.33
2022-08-07T02:56:43.013Z,96.12
2022-08-07T02:57:41.988Z,96.22
2022-08-07T02:58:47.370Z,96.48
2022-08-07T02:59:42.968Z,96.73
2022-08-07T03:00:47.051Z,96.64
2022-08-07T03:01:42.023Z,96.33
2022-08-07T03:02:54.525Z,96.43
2022-08-07T03:03:50.400Z,96.22
2022-08-07T03:04:42.933Z,96.22
2022-08-07T03:05:41.926Z,96.73
2022-08-07T03:06:42.086Z,96.22
2022-08-07T03:08:05.122Z,96.43
2022-08-07T03:08:42.897Z,96.64
2022-08-07T03:09:44.419Z,96.28
2022-08-07T03:10:46.588Z,96.22
2022-08-07T03:11:52.287Z,96.02
2022-08-07T03:12:42.875Z,96.28
2022-08-07T03:13:49.885Z,95.92
2022-08-07T03:14:42.853Z,96.33
2022-08-07T03:15:47.887Z,96.53
2022-08-07T03:16:42.866Z,96.43
2022-08-07T03:17:53.438Z,95.87
2022-08-07T03:18:44.120Z,96.02
2022-08-07T03:19:41.818Z,95.71
2022-08-07T03:20:41.802Z,96.33
2022-08-07T03:21:50.501Z,96.43
2022-08-07T03:22:42.786Z,96.43
2022-08-07T03:24:18.200Z,96.64
2022-08-07T03:24:42.771Z,96.84
2022-08-07T03:25:41.840Z,96.53
2022-08-07T03:26:51.009Z,96.53
2022-08-07T03:27:42.771Z,96.84
2022-08-07T03:28:43.151Z,96.33
2022-08-07T03:29:46.130Z,96.53
2022-08-07T03:30:42.728Z,96.43
2022-08-07T03:31:43.611Z,96.33
2022-08-07T03:32:49.183Z,96.47
2022-08-07T03:33:42.696Z,96.27
2022-08-07T03:34:47.472Z,96.33
2022-08-07T03:35:50.472Z,96.17
2022-08-07T03:36:42.676Z,96.68
2022-08-07T03:37:53.257Z,96.89
2022-08-07T03:38:42.662Z,96.89
2022-08-07T03:39:59.112Z,97.50
2022-08-07T03:40:44.542Z,96.89
2022-08-07T03:41:42.261Z,96.58
2022-08-07T03:42:42.656Z,96.78
2022-08-07T03:43:44.034Z,96.58
2022-08-07T03:44:42.615Z,96.99
2022-08-07T03:45:43.639Z,96.89
2022-08-07T03:47:11.522Z,96.78
2022-08-07T03:47:47.759Z,96.89
2022-08-07T03:48:45.294Z,96.99
2022-08-07T03:49:48.056Z,96.89
2022-08-07T03:50:43.238Z,96.78
2022-08-07T03:51:47.355Z,96.78
2022-08-07T03:52:42.572Z,96.89
2022-08-07T03:54:01.967Z,96.84
2022-08-07T03:54:54.791Z,96.68
2022-08-07T03:55:53.088Z,96.78
2022-08-07T03:56:42.523Z,97.40
2022-08-07T03:59:05.349Z,96.78
2022-08-07T03:59:08.599Z,96.73
2022-08-07T03:59:46.654Z,96.84
2022-08-07T04:00:42.509Z,97.45
2022-08-07T04:01:43.319Z,96.12
2022-08-07T04:02:41.507Z,96.53
2022-08-07T04:03:49.969Z,96.17
2022-08-07T04:04:42.441Z,96.47
2022-08-07T04:05:42.377Z,96.58
2022-08-07T04:06:41.431Z,96.53
2022-08-07T04:07:42.530Z,96.33
2022-08-07T04:08:41.416Z,95.92
2022-08-07T04:09:44.867Z,96.02
2022-08-07T04:10:42.602Z,96.12
2022-08-07T04:12:15.529Z,95.92
2022-08-07T04:12:42.404Z,96.28
2022-08-07T04:14:32.987Z,96.18
2022-08-07T04:14:43.839Z,95.52
2022-08-07T04:15:42.358Z,94.67
2022-08-07T04:16:43.080Z,92.43
2022-08-07T04:18:57.183Z,90.30
2022-08-07T04:18:59.727Z,89.09
2022-08-07T04:19:52.114Z,88.12
2022-08-07T04:20:54.321Z,86.00
2022-08-07T04:21:59.701Z,83.98
2022-08-07T04:22:53.083Z,81.45
2022-08-07T04:23:43.612Z,79.68
2022-08-07T04:24:42.288Z,78.89
2022-08-07T04:25:41.286Z,77.70
2022-08-07T04:26:43.712Z,75.87
2022-08-07T04:27:44.327Z,75.12
2022-08-07T04:28:42.274Z,74.38
2022-08-07T04:29:48.956Z,74.48
2022-08-07T04:30:55.308Z,72.78
2022-08-07T04:32:03.440Z,72.65
2022-08-07T04:32:44.687Z,71.20
2022-08-07T04:33:42.224Z,70.86
2022-08-07T04:34:41.217Z,69.61
2022-08-07T04:35:41.205Z,69.48
2022-08-07T04:36:41.202Z,68.36
2022-08-07T04:38:03.293Z,67.82
2022-08-07T04:38:42.182Z,67.29
2022-08-07T04:39:41.199Z,67.05
2022-08-07T04:40:51.246Z,65.67
2022-08-07T04:41:42.169Z,65.27
2022-08-07T04:42:42.179Z,65.44
2022-08-07T04:44:12.334Z,65.75
2022-08-07T04:44:54.769Z,65.67
2022-08-07T04:45:57.859Z,65.71
2022-08-07T04:46:59.547Z,65.04
2022-08-07T04:48:00.896Z,65.31
2022-08-07T04:48:44.621Z,64.58
2022-08-07T04:49:41.096Z,63.10
2022-08-07T04:50:41.094Z,63.17
2022-08-07T04:51:41.075Z,61.66
2022-08-07T04:52:51.020Z,61.23
2022-08-07T04:54:05.425Z,62.46
2022-08-07T04:54:42.062Z,62.94
2022-08-07T04:58:12.864Z,61.43
2022-08-07T04:58:23.951Z,61.80
2022-08-07T04:58:31.447Z,61.60
2022-08-07T04:59:18.581Z,62.01
2022-08-07T05:00:12.531Z,62.64
2022-08-07T05:00:42.060Z,63.27
2022-08-07T05:01:41.065Z,62.77
2022-08-07T05:02:43.385Z,63.24
2022-08-07T05:04:06.585Z,63.51
2022-08-07T05:04:47.273Z,62.94
2022-08-07T05:05:53.554Z,62.64
2022-08-07T05:06:43.315Z,62.91
2022-08-07T05:07:48.099Z,62.78
2022-08-07T05:08:59.147Z,61.31
2022-08-07T05:09:45.429Z,60.98
2022-08-07T05:10:40.938Z,59.72
2022-08-07T05:11:58.884Z,58.69
2022-08-07T05:12:51.364Z,59.01
2022-08-07T05:14:52.901Z,58.18
2022-08-07T05:14:56.079Z,58.39
2022-08-07T05:15:41.898Z,58.56
2022-08-07T05:16:43.895Z,58.36
2022-08-07T05:17:53.025Z,58.03
2022-08-07T05:18:41.872Z,57.83
2022-08-07T05:19:44.941Z,57.13
2022-08-07T05:20:40.867Z,57.56
2022-08-07T05:22:00.046Z,58.22
2022-08-07T05:22:41.874Z,59.67
2022-08-07T05:23:40.837Z,59.67
2022-08-07T05:24:40.953Z,60.21
2022-08-07T05:26:13.091Z,61.47
2022-08-07T05:26:41.815Z,62.51
2022-08-07T05:28:02.493Z,61.54
2022-08-07T05:28:41.806Z,59.58
2022-08-07T05:29:50.985Z,60.18
2022-08-07T05:30:42.793Z,60.35
2022-08-07T05:31:40.797Z,60.38
2022-08-07T05:32:41.799Z,59.65
2022-08-07T05:33:40.769Z,59.58
2022-08-07T05:34:41.852Z,60.18
2022-08-07T05:35:41.801Z,59.75
2022-08-07T05:36:40.745Z,59.88
2022-08-07T05:37:42.367Z,61.11
2022-08-07T05:38:58.373Z,60.08
2022-08-07T05:40:05.864Z,59.17
2022-08-07T05:40:50.559Z,61.58
2022-08-07T05:42:02.533Z,60.48
2022-08-07T05:42:43.048Z,59.75
2022-08-07T05:43:49.718Z,59.55
2022-08-07T05:44:46.615Z,58.89
2022-08-07T05:45:47.435Z,58.03
2022-08-07T05:46:42.909Z,56.87
2022-08-07T05:48:01.525Z,56.52
2022-08-07T05:48:59.194Z,55.99
2022-08-07T05:49:41.663Z,55.72
2022-08-07T05:50:42.922Z,54.86
2022-08-07T05:51:40.808Z,53.84
2022-08-07T05:52:40.644Z,53.29
2022-08-07T05:54:12.381Z,53.09
2022-08-07T05:54:53.210Z,52.99
2022-08-07T05:56:01.835Z,52.47
2022-08-07T05:56:41.620Z,51.65
2022-08-07T05:57:42.404Z,51.54
2022-08-07T05:58:40.626Z,51.03
2022-08-07T05:59:57.215Z,51.52
2022-08-07T06:00:41.584Z,51.89
2022-08-07T06:01:40.633Z,51.10
2022-08-07T06:02:40.580Z,50.80
2022-08-07T06:03:53.950Z,49.38
2022-08-07T06:04:41.565Z,50.27
2022-08-07T06:05:40.760Z,51.17
2022-08-07T06:06:46.035Z,51.00
2022-08-07T06:08:13.716Z,51.70
2022-08-07T06:08:44.367Z,50.57
2022-08-07T06:10:04.259Z,50.57
2022-08-07T06:10:42.516Z,50.98
2022-08-07T06:11:40.517Z,51.07
2022-08-07T06:12:40.511Z,50.45
2022-08-07T06:14:12.211Z,50.25
2022-08-07T06:14:41.497Z,50.03
2022-08-07T06:15:42.726Z,49.31
2022-08-07T06:16:40.485Z,49.19
2022-08-07T06:17:41.339Z,49.49
2022-08-07T06:18:42.947Z,49.58
2022-08-07T06:19:49.927Z,49.11
2022-08-07T06:20:50.404Z,49.51
2022-08-07T06:22:14.587Z,50.75
2022-08-07T06:22:41.441Z,51.05
2022-08-07T06:24:37.268Z,49.80
2022-08-07T06:24:53.235Z,48.77
2022-08-07T06:25:41.421Z,49.08
2022-08-07T06:26:41.416Z,49.56
2022-08-07T06:28:00.098Z,48.65
2022-08-07T06:28:41.432Z,48.86
2022-08-07T06:29:40.395Z,49.66
2022-08-07T06:30:45.416Z,48.92
2022-08-07T06:31:50.457Z,48.00
2022-08-07T06:32:41.375Z,47.90
2022-08-07T06:33:40.374Z,47.80
2022-08-07T06:34:40.641Z,47.68
2022-08-07T06:35:47.504Z,47.71
2022-08-07T06:36:41.349Z,48.47
2022-08-07T06:37:44.435Z,47.96
2022-08-07T06:38:58.496Z,46.64
2022-08-07T06:40:13.703Z,47.75
2022-08-07T06:40:45.744Z,47.75
2022-08-07T06:42:01.753Z,47.88
2022-08-07T06:42:41.307Z,48.27
2022-08-07T06:43:46.195Z,47.93
2022-08-07T06:44:41.330Z,47.74
2022-08-07T06:45:40.298Z,47.93
2022-08-07T06:46:40.293Z,46.38
2022-08-07T06:47:48.017Z,45.31
2022-08-07T06:48:41.844Z,46.08
2022-08-07T06:49:51.228Z,46.48
2022-08-07T06:50:43.303Z,45.86
2022-08-07T06:51:49.348Z,45.84
2022-08-07T06:52:41.253Z,45.74
2022-08-07T06:55:27.948Z,46.04
2022-08-07T06:55:31.199Z,45.82
2022-08-07T06:55:48.068Z,45.50
2022-08-07T06:56:49.721Z,45.97
2022-08-07T06:57:48.320Z,44.67
2022-08-07T06:58:41.221Z,45.75
2022-08-07T07:00:12.929Z,45.78
2022-08-07T07:00:42.317Z,44.45
2022-08-07T07:01:44.085Z,43.15
2022-08-07T07:02:54.591Z,43.05
2022-08-07T07:03:48.072Z,42.91
2022-08-07T07:04:43.571Z,42.12
2022-08-07T07:06:03.343Z,41.71
2022-08-07T07:07:00.447Z,41.78
2022-08-07T07:08:00.215Z,38.34
2022-08-07T07:08:46.753Z,40.86
2022-08-07T07:09:41.181Z,41.79
2022-08-07T07:10:47.541Z,42.66
2022-08-07T07:12:09.095Z,43.87
2022-08-07T07:12:41.744Z,43.82
2022-08-07T07:13:57.966Z,46.26
2022-08-07T07:14:41.178Z,46.24
2022-08-07T07:15:40.122Z,44.49
2022-08-07T07:16:49.653Z,44.45
2022-08-07T07:17:45.383Z,46.14
2022-08-07T07:18:48.110Z,46.90
2022-08-07T07:19:56.078Z,47.79
2022-08-07T07:20:41.089Z,47.77
2022-08-07T07:22:05.454Z,48.52
2022-08-07T07:24:08.870Z,46.14
2022-08-07T07:24:10.028Z,48.29
2022-08-07T07:24:42.936Z,44.81
2022-08-07T07:26:32.056Z,45.82
2022-08-07T07:26:41.058Z,45.68
2022-08-07T07:27:56.042Z,45.90
2022-08-07T07:28:48.333Z,47.94
2022-08-07T07:30:08.606Z,47.82
2022-08-07T07:30:42.044Z,49.06
2022-08-07T07:31:44.455Z,47.72
2022-08-07T07:32:40.012Z,46.55
2022-08-07T07:33:40.006Z,46.62
2022-08-07T07:34:40.022Z,47.92
2022-08-07T07:35:50.691Z,46.20
2022-08-07T07:36:40.990Z,46.78
2022-08-07T07:37:49.701Z,46.68
2022-08-07T07:38:40.974Z,47.80
2022-08-07T07:39:52.314Z,46.65
2022-08-07T07:40:40.965Z,48.79
2022-08-07T07:42:02.002Z,47.02
2022-08-07T07:42:40.948Z,45.89
2022-08-07T07:44:13.608Z,46.60
2022-08-07T07:44:40.965Z,48.04
2022-08-07T07:46:37.413Z,48.29
2022-08-07T07:46:55.231Z,46.19
2022-08-07T07:47:51.663Z,44.93
2022-08-07T07:48:40.916Z,45.82
2022-08-07T07:50:33.946Z,44.71
2022-08-07T07:50:40.900Z,45.23
2022-08-07T07:51:58.199Z,45.74
2022-08-07T07:52:40.888Z,45.67
2022-08-07T07:53:51.437Z,48.47
2022-08-07T07:54:44.117Z,46.13
2022-08-07T07:55:45.775Z,46.90
2022-08-07T07:56:40.864Z,47.08
2022-08-07T07:57:52.459Z,46.41
2022-08-07T07:58:41.119Z,47.52
2022-08-07T07:59:52.062Z,47.82
2022-08-07T08:00:40.837Z,46.58
2022-08-07T08:02:01.929Z,47.28
2022-08-07T08:02:40.825Z,45.61
2022-08-07T08:04:06.343Z,48.19
2022-08-07T08:04:40.871Z,46.72
2022-08-07T08:05:51.134Z,47.60
2022-08-07T08:06:40.797Z,46.92
2022-08-07T08:07:42.143Z,45.98
2022-08-07T08:08:41.965Z,45.05
2022-08-07T08:09:52.369Z,47.77
2022-08-07T08:10:40.783Z,46.78
2022-08-07T08:11:59.230Z,46.66
2022-08-07T08:12:59.091Z,45.92
2022-08-07T08:13:53.352Z,46.31
2022-08-07T08:14:40.770Z,45.60
2022-08-07T08:16:40.735Z,45.59
2022-08-07T08:18:17.504Z,45.98
2022-08-07T08:18:36.321Z,46.22
2022-08-07T08:18:40.720Z,46.46
2022-08-07T08:20:17.708Z,45.39
2022-08-07T08:20:40.704Z,47.70
2022-08-07T08:22:00.679Z,47.10
2022-08-07T08:22:54.320Z,45.98
2022-08-07T08:23:40.686Z,46.20
2022-08-07T08:24:44.900Z,44.75
2022-08-07T08:25:42.491Z,45.45
2022-08-07T08:26:40.665Z,45.47
2022-08-07T08:27:39.662Z,44.27
2022-08-07T08:28:44.948Z,45.68
2022-08-07T08:29:54.282Z,45.39
2022-08-07T08:30:51.140Z,45.05
2022-08-07T08:32:18.133Z,44.33
2022-08-07T08:32:41.329Z,45.03
2022-08-07T08:33:39.625Z,46.08
2022-08-07T08:34:40.639Z,45.61
2022-08-07T08:35:47.245Z,46.41
2022-08-07T08:36:40.601Z,46.62
2022-08-07T08:38:01.039Z,46.92
2022-08-07T08:38:41.300Z,46.83
2022-08-07T08:39:58.155Z,46.03
2022-08-07T08:40:40.582Z,44.64
2022-08-07T08:41:58.314Z,46.42
2022-08-07T08:42:40.561Z,46.84
2022-08-07T08:43:42.195Z,46.03
2022-08-07T08:44:44.687Z,45.59
2022-08-07T08:45:59.059Z,46.60
2022-08-07T08:46:40.536Z,46.01
2022-08-07T08:47:47.365Z,45.51
2022-08-07T08:48:40.519Z,45.73
2022-08-07T08:49:46.892Z,44.52
2022-08-07T08:50:40.506Z,45.51
2022-08-07T08:51:49.726Z,44.49
2022-08-07T08:52:40.749Z,45.41
2022-08-07T08:53:40.487Z,46.08
2022-08-07T08:54:39.479Z,45.74
2022-08-07T08:55:54.993Z,45.54
2022-08-07T08:56:43.580Z,44.06
2022-08-07T08:57:40.485Z,44.77
2022-08-07T08:58:39.454Z,44.29
2022-08-07T08:59:42.345Z,46.16
2022-08-07T09:00:42.470Z,45.76
2022-08-07T09:01:43.740Z,44.77
2022-08-07T09:02:40.599Z,43.18
2022-08-07T09:03:48.074Z,45.01
2022-08-07T09:04:40.435Z,45.23
2022-08-07T09:05:39.406Z,46.03
2022-08-07T09:06:40.245Z,46.11
2022-08-07T09:07:46.400Z,44.79
2022-08-07T09:08:40.383Z,45.19
2022-08-07T09:09:39.401Z,45.01
2022-08-07T09:10:44.270Z,44.29
2022-08-07T09:11:51.188Z,44.37
2022-08-07T09:12:40.353Z,42.80
2022-08-07T09:13:39.351Z,44.71
2022-08-07T09:14:39.363Z,43.48
2022-08-07T09:16:21.523Z,43.34
2022-08-07T09:16:40.324Z,42.80
2022-08-07T09:17:59.273Z,42.77
2022-08-07T09:18:40.312Z,42.66
2022-08-07T09:19:53.118Z,43.68
2022-08-07T09:20:40.295Z,42.86
2022-08-07T09:21:58.141Z,42.49
2022-08-07T09:24:32.440Z,43.98
2022-08-07T09:24:33.477Z,42.66
2022-08-07T09:24:58.594Z,41.33
2022-08-07T09:25:40.257Z,41.85
2022-08-07T09:26:39.253Z,42.31
2022-08-07T09:28:00.644Z,41.61
2022-08-07T09:30:01.099Z,41.81
2022-08-07T09:30:06.239Z,39.79
2022-08-07T09:30:40.341Z,39.34
2022-08-07T09:31:40.216Z,38.20
2022-08-07T09:32:40.216Z,40.98
2022-08-07T09:33:52.714Z,39.91
2022-08-07T09:34:40.218Z,42.57
2022-08-07T09:36:03.238Z,43.23
2022-08-07T09:36:43.092Z,43.13
2022-08-07T09:37:54.098Z,41.91
2022-08-07T09:38:40.168Z,41.82
2022-08-07T09:39:53.867Z,40.62
2022-08-07T09:40:40.160Z,41.47
2022-08-07T09:41:43.125Z,42.09
2022-08-07T09:42:40.139Z,43.02
2022-08-07T09:44:03.580Z,42.17
2022-08-07T09:47:25.529Z,41.83
2022-08-07T09:47:25.742Z,40.58
2022-08-07T09:47:52.329Z,40.09
2022-08-07T09:47:58.992Z,41.47
2022-08-07T09:48:56.080Z,42.19
2022-08-07T09:50:03.007Z,41.89
2022-08-07T09:50:40.097Z,40.68
2022-08-07T09:52:15.196Z,42.55
2022-08-07T09:52:40.085Z,41.99
2022-08-07T09:53:41.226Z,41.75
2022-08-07T09:54:40.091Z,40.68
2022-08-07T09:56:03.933Z,41.22
2022-08-07T09:56:41.864Z,44.72
2022-08-07T09:57:46.745Z,42.43
2022-08-07T09:58:41.541Z,42.65
2022-08-07T09:59:46.323Z,42.65
2022-08-07T10:00:40.006Z,42.65
2022-08-07T10:01:51.018Z,43.75
2022-08-07T10:02:39.987Z,44.27
2022-08-07T10:04:05.724Z,44.99
2022-08-07T10:04:47.739Z,44.09
2022-08-07T10:06:00.636Z,44.76
2022-08-07T10:06:39.964Z,44.45
2022-08-07T10:07:53.119Z,43.73
2022-08-07T10:08:39.945Z,42.97
2022-08-07T10:09:59.384Z,44.24
2022-08-07T10:11:59.494Z,42.05
2022-08-07T10:12:01.296Z,44.24
2022-08-07T10:12:39.971Z,43.15
2022-08-07T10:14:01.378Z,42.75
2022-08-07T10:14:39.920Z,44.84
2022-08-07T10:15:44.343Z,43.43
2022-08-07T10:16:39.887Z,45.30
2022-08-07T10:18:00.940Z,42.71
2022-08-07T10:18:39.863Z,43.03
2022-08-07T10:19:38.881Z,43.23
2022-08-07T10:20:38.846Z,42.73
2022-08-07T10:22:14.559Z,42.41
2022-08-07T10:22:43.186Z,43.01
2022-08-07T10:24:05.156Z,42.63
2022-08-07T10:24:39.953Z,45.12
2022-08-07T10:25:42.786Z,42.05
2022-08-07T10:26:38.806Z,44.23
2022-08-07T10:27:46.305Z,41.83
2022-08-07T10:28:39.792Z,41.82
2022-08-07T10:29:45.492Z,44.28
2022-08-07T10:30:40.775Z,42.91
2022-08-07T10:31:39.292Z,42.73
2022-08-07T10:32:52.956Z,42.63
2022-08-07T10:34:14.116Z,42.81
2022-08-07T10:34:39.786Z,43.52
2022-08-07T10:35:53.493Z,43.13
2022-08-07T10:36:39.733Z,43.33
2022-08-07T10:37:48.381Z,44.42
2022-08-07T10:38:48.490Z,42.15
2022-08-07T10:39:42.094Z,44.82
2022-08-07T10:40:39.693Z,41.02
2022-08-07T10:41:51.537Z,43.19
2022-08-07T10:42:39.680Z,42.41
2022-08-07T10:43:38.673Z,40.94
2022-08-07T10:44:39.170Z,40.74
2022-08-07T10:45:57.713Z,40.56
2022-08-07T10:46:39.647Z,40.66
2022-08-07T10:47:52.854Z,43.25
2022-08-07T10:48:39.629Z,42.31
2022-08-07T10:49:49.622Z,40.50
2022-08-07T10:50:39.636Z,41.00
2022-08-07T10:52:01.728Z,41.61
2022-08-07T10:52:40.186Z,41.12
2022-08-07T10:53:44.147Z,40.70
2022-08-07T10:54:39.613Z,40.60
2022-08-07T10:55:38.990Z,42.27
2022-08-07T10:56:38.567Z,40.60
2022-08-07T10:57:38.761Z,42.71
2022-08-07T10:58:40.569Z,40.40
2022-08-07T10:59:38.545Z,40.50
2022-08-07T11:00:43.335Z,40.28
2022-08-07T11:01:52.027Z,39.57
2022-08-07T11:02:40.077Z,39.17
2022-08-07T11:03:54.932Z,40.66
2022-08-07T11:04:39.566Z,40.46
2022-08-07T11:05:49.245Z,38.79
2022-08-07T11:06:39.485Z,40.26
2022-08-07T11:07:59.150Z,40.76
2022-08-07T11:08:39.472Z,40.38
2022-08-07T11:10:07.390Z,40.28
2022-08-07T11:10:39.485Z,40.72
2022-08-07T11:11:38.456Z,39.72
2022-08-07T11:12:38.443Z,39.01
2022-08-07T11:14:42.102Z,39.50
2022-08-07T11:14:46.298Z,40.78
2022-08-07T11:15:39.436Z,38.65
2022-08-07T11:16:38.415Z,38.73
2022-08-07T11:17:43.201Z,38.64
2022-08-07T11:18:39.405Z,38.95
2022-08-07T11:19:38.415Z,39.13
2022-08-07T11:20:38.409Z,39.73
2022-08-07T11:21:40.902Z,38.52
2022-08-07T11:22:45.781Z,38.62
2022-08-07T11:23:40.363Z,38.79
2022-08-07T11:24:38.355Z,39.19
2022-08-07T11:25:47.794Z,38.30
2022-08-07T11:26:43.453Z,38.40
2022-08-07T11:28:03.085Z,37.21
2022-08-07T11:28:39.325Z,36.99
2022-08-07T11:29:42.214Z,37.87
2022-08-07T11:30:41.816Z,36.86
2022-08-07T11:31:38.307Z,38.17
2022-08-07T11:32:40.432Z,39.89
2022-08-07T11:33:59.097Z,38.42
2022-08-07T11:34:40.887Z,40.50
2022-08-07T11:35:59.720Z,38.73
2022-08-07T11:36:39.274Z,40.14
2022-08-07T11:37:58.182Z,39.17
2022-08-07T11:38:40.007Z,39.97
2022-08-07T11:39:59.024Z,38.57
2022-08-07T11:40:39.430Z,38.56
2022-08-07T11:42:00.199Z,38.65
2022-08-07T11:42:39.418Z,39.05
2022-08-07T11:43:54.302Z,40.05
2022-08-07T11:44:39.207Z,38.83
2022-08-07T11:45:40.668Z,38.24
2022-08-07T11:46:39.189Z,38.02
2022-08-07T11:47:39.171Z,38.30
2022-08-07T11:48:39.171Z,38.58
2022-08-07T11:50:18.848Z,37.95
2022-08-07T11:50:44.480Z,39.42
2022-08-07T11:51:41.383Z,37.71
2022-08-07T11:52:39.144Z,38.19
2022-08-07T11:53:38.137Z,37.18
2022-08-07T11:54:39.128Z,38.17
2022-08-07T11:56:24.841Z,38.07
2022-08-07T11:56:39.112Z,36.79
2022-08-07T11:57:59.360Z,35.68
2022-08-07T11:58:39.098Z,35.80
2022-08-07T12:00:10.172Z,37.89
2022-08-07T12:00:39.107Z,37.08
2022-08-07T12:01:59.927Z,37.18
2022-08-07T12:02:39.090Z,37.89
2022-08-07T12:03:41.783Z,38.23
2022-08-07T12:04:39.048Z,38.76
2022-08-07T12:05:41.228Z,38.78
2022-08-07T12:06:51.700Z,40.28
2022-08-07T12:07:40.027Z,39.29
2022-08-07T12:08:38.021Z,40.70
2022-08-07T12:09:38.020Z,40.33
2022-08-07T12:10:38.031Z,39.73
2022-08-07T12:11:43.244Z,39.61
2022-08-07T12:12:38.985Z,38.93
2022-08-07T12:13:40.970Z,41.82
2022-08-07T12:14:39.973Z,42.09
2022-08-07T12:16:05.897Z,41.89
2022-08-07T12:16:38.962Z,40.72
2022-08-07T12:17:38.192Z,40.54
2022-08-07T12:18:37.951Z,39.13
2022-08-07T12:19:56.713Z,38.93
2022-08-07T12:20:38.964Z,38.81
2022-08-07T12:22:38.120Z,39.09
2022-08-07T12:22:56.496Z,38.40
2022-08-07T12:24:07.449Z,38.56
2022-08-07T12:24:40.189Z,37.88
2022-08-07T12:26:22.028Z,38.26
2022-08-07T12:26:41.977Z,38.26
2022-08-07T12:28:08.589Z,40.34
2022-08-07T12:28:38.867Z,38.46
2022-08-07T12:29:40.249Z,37.95
2022-08-07T12:30:37.873Z,37.95
2022-08-07T12:32:01.627Z,38.96
2022-08-07T12:32:38.896Z,38.78
2022-08-07T12:34:01.461Z,40.09
2022-08-07T12:34:38.827Z,38.52
2022-08-07T12:35:37.839Z,40.41
2022-08-07T12:36:37.809Z,40.78
2022-08-07T12:38:09.542Z,40.01
2022-08-07T12:38:47.097Z,39.03
2022-08-07T12:39:42.602Z,41.79
2022-08-07T12:40:47.492Z,39.01
2022-08-07T12:41:51.604Z,38.71
2022-08-07T12:42:38.758Z,38.92
2022-08-07T12:44:02.573Z,39.11
2022-08-07T12:44:38.747Z,38.64
2022-08-07T12:45:37.763Z,38.73
2022-08-07T12:46:37.730Z,38.73
2022-08-07T12:47:39.726Z,40.20
2022-08-07T12:48:52.081Z,38.52
2022-08-07T12:49:48.892Z,39.23
2022-08-07T12:50:49.400Z,38.92
2022-08-07T12:52:12.400Z,39.21
2022-08-07T12:52:38.686Z,38.71